createdAt,value
2023-05-13T00:00:25.121Z,76.19
2023-05-13T00:02:53.053Z,76.01
2023-05-13T00:05:21.275Z,76.28
2023-05-13T00:07:49.289Z,76.61
2023-05-13T00:14:44.497Z,77.58
2023-05-13T00:17:12.617Z,77.65
2023-05-13T00:19:40.995Z,78.12
2023-05-13T00:22:09.186Z,78.22
2023-05-13T00:28:26.929Z,76.63
2023-05-13T00:30:54.777Z,75.93
2023-05-13T00:33:22.805Z,76.55
2023-05-13T00:35:50.691Z,78.75
2023-05-13T00:38:18.599Z,79.85
2023-05-13T00:40:47.431Z,78.19
2023-05-13T00:43:15.700Z,79.88
2023-05-13T00:45:43.688Z,79.77
2023-05-13T00:48:11.943Z,79.48
2023-05-13T00:50:42.490Z,79.49
2023-05-13T00:53:13.150Z,76.28
2023-05-13T00:55:45.576Z,75.15
2023-05-13T00:58:14.079Z,71.86
2023-05-13T01:00:55.215Z,69.41
2023-05-13T01:03:35.102Z,66.67
2023-05-13T01:06:17.381Z,65.83
2023-05-13T01:09:26.701Z,67.48
2023-05-13T01:11:57.508Z,66.76
2023-05-13T01:14:35.721Z,64.46
2023-05-13T01:17:24.716Z,62.70
2023-05-13T01:19:58.044Z,64.72
2023-05-13T01:22:26.384Z,63.93
2023-05-13T01:24:54.385Z,64.34
2023-05-13T01:27:22.540Z,65.96
2023-05-13T01:29:50.868Z,65.98
2023-05-13T01:32:25.031Z,66.14
2023-05-13T01:34:53.813Z,67.93
2023-05-13T01:37:23.167Z,67.94
2023-05-13T01:39:52.129Z,66.92
2023-05-13T01:42:20.179Z,66.33
2023-05-13T01:44:48.424Z,67.06
2023-05-13T01:47:16.967Z,66.67
2023-05-13T01:49:44.922Z,66.65
2023-05-13T01:52:13.072Z,66.83
2023-05-13T01:54:40.944Z,67.29
2023-05-13T01:57:12.440Z,67.10
2023-05-13T01:59:40.514Z,65.64
2023-05-13T02:02:08.636Z,66.24
2023-05-13T02:04:36.602Z,66.31
2023-05-13T02:07:04.862Z,67.09
2023-05-13T02:09:33.965Z,66.73
2023-05-13T02:12:01.991Z,68.19
2023-05-13T02:14:30.465Z,67.16
2023-05-13T02:16:58.477Z,66.89
2023-05-13T02:19:26.690Z,66.25
2023-05-13T02:21:54.538Z,66.61
2023-05-13T02:24:22.709Z,65.65
2023-05-13T02:26:50.588Z,65.91
2023-05-13T02:29:18.513Z,65.93
2023-05-13T02:31:46.453Z,66.08
2023-05-13T02:34:14.950Z,66.85
2023-05-13T02:36:42.844Z,67.88
2023-05-13T02:39:10.776Z,67.82
2023-05-13T02:41:39.254Z,68.91
2023-05-13T02:44:07.284Z,69.25
2023-05-13T02:46:35.822Z,70.22
2023-05-13T02:49:03.937Z,69.39
2023-05-13T02:54:33.050Z,70.47
2023-05-13T02:57:01.323Z,69.90
2023-05-13T02:59:29.320Z,70.80
2023-05-13T03:01:57.776Z,71.75
2023-05-13T03:04:25.709Z,72.03
2023-05-13T03:06:53.676Z,72.55
2023-05-13T03:09:21.595Z,73.26
2023-05-13T03:11:49.645Z,73.17
2023-05-13T03:14:17.599Z,72.80
2023-05-13T03:16:45.566Z,72.30
2023-05-13T03:19:15.822Z,71.31
2023-05-13T03:21:43.857Z,71.95
2023-05-13T03:24:15.202Z,72.00
2023-05-13T03:26:43.314Z,72.42
2023-05-13T03:29:11.405Z,72.68
2023-05-13T03:31:40.055Z,73.33
2023-05-13T03:34:08.768Z,72.32
2023-05-13T03:36:37.895Z,72.80
2023-05-13T03:39:06.354Z,73.25
2023-05-13T03:41:35.203Z,73.62
2023-05-13T03:44:03.823Z,74.95
2023-05-13T03:46:32.276Z,75.47
2023-05-13T03:49:00.461Z,75.28
2023-05-13T03:51:29.980Z,75.16
2023-05-13T03:53:58.264Z,75.30
2023-05-13T03:56:26.366Z,75.65
2023-05-13T03:58:54.469Z,75.15
2023-05-13T04:01:22.498Z,75.06
2023-05-13T04:03:50.518Z,75.22
2023-05-13T04:06:18.847Z,74.91
2023-05-13T04:08:49.583Z,74.68
2023-05-13T04:11:17.525Z,74.55
2023-05-13T04:13:46.248Z,74.48
2023-05-13T04:16:14.708Z,75.21
2023-05-13T04:18:42.980Z,75.64
2023-05-13T04:21:11.682Z,75.72
2023-05-13T04:23:39.609Z,75.70
2023-05-13T04:26:07.488Z,75.73
2023-05-13T04:28:35.619Z,76.13
2023-05-13T04:31:04.046Z,75.67
2023-05-13T04:33:34.046Z,75.58
2023-05-13T04:36:02.088Z,76.00
2023-05-13T04:38:31.666Z,75.71
2023-05-13T04:41:00.017Z,75.66
2023-05-13T04:43:36.960Z,76.04
2023-05-13T04:46:05.094Z,75.48
2023-05-13T04:48:33.494Z,75.49
2023-05-13T04:51:01.880Z,76.05
2023-05-13T04:53:31.293Z,76.29
2023-05-13T04:56:02.653Z,78.30
2023-05-13T04:58:31.557Z,76.74
2023-05-13T05:00:59.665Z,76.98
2023-05-13T05:03:27.604Z,76.42
2023-05-13T05:05:55.879Z,77.53
2023-05-13T05:08:25.232Z,77.78
2023-05-13T05:10:53.865Z,79.42
2023-05-13T05:13:22.172Z,79.45
2023-05-13T05:15:50.682Z,79.28
2023-05-13T05:18:18.752Z,78.04
2023-05-13T05:20:49.453Z,76.80
2023-05-13T05:23:19.863Z,74.20
2023-05-13T05:25:49.824Z,75.08
2023-05-13T05:28:21.988Z,74.12
2023-05-13T05:30:49.944Z,72.99
2023-05-13T05:33:27.483Z,73.82
2023-05-13T05:35:55.577Z,73.84
2023-05-13T05:38:27.023Z,72.92
2023-05-13T05:40:57.073Z,71.37
2023-05-13T05:43:26.533Z,70.19
2023-05-13T05:45:54.518Z,71.59
2023-05-13T05:48:23.620Z,72.15
2023-05-13T05:50:51.639Z,68.83
2023-05-13T05:53:26.637Z,68.17
2023-05-13T05:55:55.159Z,67.85
2023-05-13T05:58:23.865Z,67.58
2023-05-13T06:00:52.221Z,66.81
2023-05-13T06:03:21.602Z,66.03
2023-05-13T06:05:49.859Z,64.33
2023-05-13T06:08:19.656Z,63.42
2023-05-13T06:10:47.567Z,64.11
2023-05-13T06:13:16.250Z,64.22
2023-05-13T06:15:44.280Z,64.36
2023-05-13T06:18:12.901Z,65.94
2023-05-13T06:20:41.178Z,66.09
2023-05-13T06:23:10.986Z,65.71
2023-05-13T06:25:39.150Z,62.17
2023-05-13T06:28:09.068Z,60.04
2023-05-13T06:30:38.271Z,55.43
2023-05-13T06:33:06.616Z,49.55
2023-05-13T06:35:34.910Z,44.64
2023-05-13T06:38:06.298Z,40.74
2023-05-13T06:40:35.642Z,36.50
2023-05-13T06:43:04.042Z,36.13
2023-05-13T06:45:38.968Z,33.12
2023-05-13T06:48:07.131Z,32.67
2023-05-13T06:50:35.313Z,32.40
2023-05-13T06:53:03.778Z,33.88
2023-05-13T06:55:32.256Z,35.64
2023-05-13T06:58:00.181Z,39.37
2023-05-13T07:00:28.144Z,40.43
2023-05-13T07:02:56.121Z,41.76
2023-05-13T07:05:24.262Z,43.13
2023-05-13T07:07:53.956Z,45.26
2023-05-13T07:10:22.220Z,47.49
2023-05-13T07:12:50.368Z,48.03
2023-05-13T07:15:18.637Z,48.21
2023-05-13T07:17:46.660Z,46.39
2023-05-13T07:20:14.915Z,47.93
2023-05-13T07:22:42.977Z,46.48
2023-05-13T07:25:11.565Z,44.21
2023-05-13T07:27:39.569Z,41.48
2023-05-13T07:30:08.488Z,39.83
2023-05-13T07:32:37.349Z,34.99
2023-05-13T07:35:06.684Z,34.80
2023-05-13T07:37:35.059Z,35.07
2023-05-13T07:40:04.795Z,34.55
2023-05-13T07:42:33.314Z,39.58
2023-05-13T07:45:01.481Z,42.93
2023-05-13T07:47:31.817Z,42.97
2023-05-13T07:50:00.770Z,43.60
2023-05-13T07:52:28.913Z,44.54
2023-05-13T07:54:56.990Z,45.63
2023-05-13T07:57:24.938Z,45.05
2023-05-13T07:59:54.613Z,45.03
2023-05-13T08:02:23.117Z,45.48
2023-05-13T08:04:53.737Z,45.71
2023-05-13T08:07:21.774Z,46.40
2023-05-13T08:09:49.656Z,50.24
2023-05-13T08:12:17.630Z,51.89
2023-05-13T08:14:47.555Z,53.11
2023-05-13T08:17:18.468Z,51.05
2023-05-13T08:19:46.722Z,50.34
2023-05-13T08:22:14.840Z,50.64
2023-05-13T08:24:43.516Z,50.19
2023-05-13T08:27:13.034Z,51.74
2023-05-13T08:29:40.973Z,52.02
2023-05-13T08:32:09.112Z,52.09
2023-05-13T08:34:37.162Z,51.92
2023-05-13T08:37:05.602Z,52.71
2023-05-13T08:39:34.578Z,51.60
2023-05-13T08:42:04.459Z,50.10
2023-05-13T08:44:36.589Z,48.10
2023-05-13T08:47:16.341Z,47.83
2023-05-13T08:49:46.929Z,44.14
2023-05-13T08:52:15.304Z,41.78
2023-05-13T08:54:44.584Z,42.73
2023-05-13T08:57:13.240Z,43.09
2023-05-13T08:59:41.358Z,43.40
2023-05-13T09:02:11.033Z,43.59
2023-05-13T09:04:41.629Z,45.94
2023-05-13T09:07:11.900Z,44.91
2023-05-13T09:09:41.286Z,44.23
2023-05-13T09:12:09.570Z,43.96
2023-05-13T09:14:38.981Z,44.38
2023-05-13T09:17:08.296Z,46.91
2023-05-13T09:19:36.880Z,47.80
2023-05-13T09:22:05.427Z,49.65
2023-05-13T09:24:33.802Z,48.79
2023-05-13T09:27:01.834Z,48.21
2023-05-13T09:29:29.869Z,48.65
2023-05-13T09:32:00.516Z,48.16
2023-05-13T09:34:30.191Z,49.67
2023-05-13T09:37:06.627Z,49.11
2023-05-13T09:39:40.161Z,49.10
2023-05-13T09:42:19.296Z,49.84
2023-05-13T09:44:48.543Z,49.09
2023-05-13T09:47:18.210Z,48.91
2023-05-13T09:49:56.883Z,48.49
2023-05-13T09:52:25.251Z,47.71
2023-05-13T09:54:56.545Z,47.07
2023-05-13T09:57:24.732Z,45.57
2023-05-13T09:59:58.535Z,47.24
2023-05-13T10:02:28.568Z,45.06
2023-05-13T10:04:57.466Z,41.97
2023-05-13T10:07:26.189Z,42.28
2023-05-13T10:09:57.600Z,45.04
2023-05-13T10:12:26.918Z,42.65
2023-05-13T10:14:56.287Z,42.82
2023-05-13T10:17:26.328Z,43.33
2023-05-13T10:19:55.256Z,44.76
2023-05-13T10:22:32.130Z,45.73
2023-05-13T10:25:03.284Z,44.85
2023-05-13T10:27:34.283Z,44.67
2023-05-13T10:30:06.192Z,46.30
2023-05-13T10:32:37.406Z,44.19
2023-05-13T10:35:21.007Z,43.95
2023-05-13T10:37:55.256Z,44.40
2023-05-13T10:40:47.629Z,44.74
2023-05-13T10:43:29.147Z,44.65
2023-05-13T10:46:08.535Z,46.99
2023-05-13T10:48:41.050Z,46.26
2023-05-13T10:51:13.931Z,48.63
2023-05-13T10:53:53.605Z,49.40
2023-05-13T10:56:24.662Z,49.63
2023-05-13T10:58:59.442Z,50.63
2023-05-13T11:01:31.999Z,50.58
2023-05-13T11:04:03.741Z,50.41
2023-05-13T11:06:39.009Z,49.49
2023-05-13T11:09:29.294Z,49.43
2023-05-13T11:12:01.838Z,49.84
2023-05-13T11:14:32.933Z,50.15
2023-05-13T11:17:01.416Z,50.30
2023-05-13T11:19:32.237Z,49.28
2023-05-13T11:22:19.447Z,48.62
2023-05-13T11:25:09.413Z,48.96
2023-05-13T11:27:43.353Z,46.04
2023-05-13T11:30:26.589Z,46.35
2023-05-13T11:32:57.428Z,47.08
2023-05-13T11:35:25.970Z,48.39
2023-05-13T11:38:00.141Z,48.89
2023-05-13T11:40:32.368Z,47.09
2023-05-13T11:43:01.528Z,48.02
2023-05-13T11:45:30.612Z,48.32
2023-05-13T11:47:59.613Z,46.96
2023-05-13T11:50:35.579Z,47.31
2023-05-13T11:53:04.127Z,46.46
2023-05-13T11:55:37.234Z,45.24
2023-05-13T11:58:05.625Z,45.77
2023-05-13T12:00:35.225Z,44.88
2023-05-13T12:03:12.221Z,46.55
2023-05-13T12:05:40.901Z,46.59
2023-05-13T12:08:10.976Z,45.14
2023-05-13T12:10:48.550Z,44.97
2023-05-13T12:13:17.518Z,45.57
2023-05-13T12:15:46.359Z,44.17
2023-05-13T12:18:15.034Z,45.36
2023-05-13T12:20:43.502Z,42.58
2023-05-13T12:23:14.584Z,42.44
2023-05-13T12:25:48.540Z,42.33
2023-05-13T12:28:21.664Z,43.77
2023-05-13T12:31:14.697Z,43.38
2023-05-13T12:33:44.821Z,43.61
2023-05-13T12:36:34.072Z,43.76
2023-05-13T12:39:11.903Z,44.04
2023-05-13T12:41:42.758Z,41.44
2023-05-13T12:44:15.370Z,42.38
2023-05-13T12:46:55.756Z,41.38
2023-05-13T12:49:24.856Z,41.97
2023-05-13T12:51:53.220Z,43.63
2023-05-13T12:54:22.146Z,44.47
2023-05-13T12:56:50.577Z,44.13
2023-05-13T12:59:19.558Z,44.50
2023-05-13T13:01:50.196Z,43.85
2023-05-13T13:04:19.910Z,43.58
2023-05-13T13:06:48.576Z,45.18
2023-05-13T13:09:17.064Z,44.61
2023-05-13T13:11:45.360Z,45.01
2023-05-13T13:14:13.954Z,44.68
2023-05-13T13:16:43.259Z,44.81
2023-05-13T13:19:11.738Z,43.47
2023-05-13T13:21:40.376Z,44.66
2023-05-13T13:24:09.224Z,43.85
2023-05-13T13:26:37.781Z,43.47
2023-05-13T13:29:05.836Z,43.16
2023-05-13T13:31:34.558Z,43.15
2023-05-13T13:34:05.225Z,42.73
2023-05-13T13:36:33.587Z,41.25
2023-05-13T13:39:02.197Z,41.64
2023-05-13T13:41:30.855Z,41.73
2023-05-13T13:43:59.014Z,42.08
2023-05-13T13:46:27.549Z,42.38
2023-05-13T13:48:55.855Z,42.08
2023-05-13T13:51:24.281Z,42.78
2023-05-13T13:53:52.875Z,42.48
2023-05-13T13:56:21.431Z,43.03
2023-05-13T13:58:49.858Z,44.67
2023-05-13T14:01:20.153Z,44.66
2023-05-13T14:03:50.789Z,43.09
2023-05-13T14:06:20.301Z,42.99
2023-05-13T14:08:51.319Z,42.63
2023-05-13T14:11:19.942Z,42.60
2023-05-13T14:13:48.220Z,42.50
2023-05-13T14:16:16.788Z,43.38
2023-05-13T14:18:45.381Z,44.39
2023-05-13T14:21:14.056Z,44.87
2023-05-13T14:23:42.401Z,45.11
2023-05-13T14:26:12.179Z,44.53
2023-05-13T14:28:40.726Z,44.86
2023-05-13T14:31:09.278Z,45.21
2023-05-13T14:33:37.886Z,45.27
2023-05-13T14:36:06.723Z,46.80
2023-05-13T14:38:35.174Z,46.59
2023-05-13T14:41:03.771Z,45.25
2023-05-13T14:43:32.094Z,46.22
2023-05-13T14:46:00.484Z,46.65
2023-05-13T14:48:29.111Z,46.31
2023-05-13T14:50:57.422Z,46.80
2023-05-13T14:53:25.847Z,47.89
2023-05-13T14:55:55.306Z,47.58
2023-05-13T14:58:24.153Z,48.24
2023-05-13T15:00:52.549Z,49.57
2023-05-13T15:03:20.916Z,49.75
2023-05-13T15:05:50.618Z,49.88
2023-05-13T15:08:19.856Z,48.95
2023-05-13T15:10:48.410Z,50.30
2023-05-13T15:13:19.353Z,49.05
2023-05-13T15:15:47.859Z,49.78
2023-05-13T15:18:16.364Z,49.48
2023-05-13T15:20:45.793Z,50.05
2023-05-13T15:23:15.033Z,50.59
2023-05-13T15:25:43.430Z,51.14
2023-05-13T15:28:12.159Z,51.07
2023-05-13T15:30:40.621Z,50.44
2023-05-13T15:33:08.951Z,51.31
2023-05-13T15:35:37.314Z,50.56
2023-05-13T15:38:05.786Z,50.62
2023-05-13T15:40:34.308Z,51.29
2023-05-13T15:43:02.698Z,51.82
2023-05-13T15:45:31.520Z,51.79
2023-05-13T15:48:00.169Z,52.35
2023-05-13T15:50:28.804Z,52.61
2023-05-13T15:52:57.188Z,52.14
2023-05-13T15:55:26.703Z,52.19
2023-05-13T15:57:55.155Z,52.59
2023-05-13T16:00:24.034Z,52.50
2023-05-13T16:02:52.714Z,52.16
2023-05-13T16:05:21.334Z,52.11
2023-05-13T16:07:50.188Z,51.64
2023-05-13T16:10:19.299Z,52.72
2023-05-13T16:12:47.778Z,52.26
2023-05-13T16:15:16.085Z,52.66
2023-05-13T16:17:44.244Z,53.15
2023-05-13T16:20:13.801Z,53.45
2023-05-13T16:22:42.245Z,53.27
2023-05-13T16:25:12.049Z,53.36
2023-05-13T16:27:43.402Z,54.06
2023-05-13T16:30:12.728Z,54.58
2023-05-13T16:32:41.259Z,54.62
2023-05-13T16:35:12.307Z,55.20
2023-05-13T16:37:40.732Z,54.64
2023-05-13T16:40:09.827Z,55.61
2023-05-13T16:42:38.351Z,56.07
2023-05-13T16:45:07.549Z,55.81
2023-05-13T16:47:36.116Z,54.43
2023-05-13T16:50:04.951Z,55.14
2023-05-13T16:52:34.470Z,55.50
2023-05-13T16:55:03.455Z,55.46
2023-05-13T16:57:32.082Z,55.65
2023-05-13T17:00:00.523Z,55.52
2023-05-13T17:02:29.091Z,56.55
2023-05-13T17:04:57.489Z,56.40
2023-05-13T17:07:26.105Z,56.55
2023-05-13T17:09:54.523Z,56.24
2023-05-13T17:12:23.017Z,56.30
2023-05-13T17:14:52.160Z,56.91
2023-05-13T17:17:21.060Z,57.31
2023-05-13T17:19:49.796Z,57.34
2023-05-13T17:22:18.338Z,57.78
2023-05-13T17:24:46.776Z,57.99
2023-05-13T17:27:15.068Z,57.40
2023-05-13T17:29:43.667Z,57.48
2023-05-13T17:32:12.505Z,57.01
2023-05-13T17:34:41.178Z,57.64
2023-05-13T17:37:09.586Z,58.36
2023-05-13T17:39:38.123Z,57.74
2023-05-13T17:42:06.726Z,57.54
2023-05-13T17:44:34.725Z,58.00
2023-05-13T17:47:02.986Z,57.83
2023-05-13T17:49:31.381Z,57.92
2023-05-13T17:51:59.719Z,57.67
2023-05-13T17:54:28.137Z,57.72
2023-05-13T17:56:56.480Z,57.82
2023-05-13T17:59:24.678Z,58.30
2023-05-13T18:01:53.205Z,59.24
2023-05-13T18:04:21.896Z,59.31
2023-05-13T18:06:50.524Z,59.24
2023-05-13T18:09:18.977Z,59.85
2023-05-13T18:11:47.354Z,60.95
2023-05-13T18:14:15.984Z,61.84
2023-05-13T18:16:44.566Z,62.55
2023-05-13T18:19:13.226Z,63.05
2023-05-13T18:21:41.626Z,63.21
2023-05-13T18:24:10.222Z,63.22
2023-05-13T18:26:38.650Z,62.76
2023-05-13T18:29:07.383Z,62.88
2023-05-13T18:31:35.923Z,63.03
2023-05-13T18:34:04.175Z,64.32
2023-05-13T18:36:33.139Z,65.35
2023-05-13T18:39:01.495Z,66.35
2023-05-13T18:41:30.030Z,66.07
2023-05-13T18:43:58.361Z,66.40
2023-05-13T18:46:27.071Z,66.54
2023-05-13T18:48:55.504Z,67.02
2023-05-13T18:51:24.094Z,67.18
2023-05-13T18:53:52.496Z,66.51
2023-05-13T18:56:24.385Z,66.56
2023-05-13T18:58:53.161Z,67.38
2023-05-13T19:01:21.672Z,67.16
2023-05-13T19:03:51.267Z,67.44
2023-05-13T19:06:19.693Z,69.37
2023-05-13T19:08:48.295Z,69.28
2023-05-13T19:11:16.692Z,70.06
2023-05-13T19:13:47.518Z,69.22
2023-05-13T19:16:16.792Z,68.99
2023-05-13T19:18:44.981Z,68.61
2023-05-13T19:21:13.404Z,68.91
2023-05-13T19:23:41.852Z,68.34
2023-05-13T19:26:12.893Z,68.26
2023-05-13T19:28:44.325Z,68.56
2023-05-13T19:31:12.985Z,68.80
2023-05-13T19:33:41.596Z,68.79
2023-05-13T19:36:11.136Z,68.96
2023-05-13T19:38:39.693Z,69.43
2023-05-13T19:41:07.895Z,69.91
2023-05-13T19:43:36.309Z,70.03
2023-05-13T19:46:04.792Z,69.81
2023-05-13T19:48:33.209Z,69.90
2023-05-13T19:51:01.966Z,69.77
2023-05-13T19:53:30.504Z,69.50
2023-05-13T19:55:59.051Z,70.27
2023-05-13T19:58:27.498Z,69.54
2023-05-13T20:00:56.621Z,69.62
2023-05-13T20:03:24.951Z,69.85
2023-05-13T20:05:54.325Z,70.10
2023-05-13T20:08:23.269Z,70.09
2023-05-13T20:10:52.497Z,70.18
2023-05-13T20:13:21.084Z,70.42
2023-05-13T20:15:49.491Z,70.61
2023-05-13T20:18:18.057Z,70.70
2023-05-13T20:20:47.471Z,70.84
2023-05-13T20:23:15.786Z,71.03
2023-05-13T20:25:46.135Z,70.99
2023-05-13T20:28:14.576Z,70.06
2023-05-13T20:30:43.277Z,70.61
2023-05-13T20:33:11.982Z,70.74
2023-05-13T20:35:40.266Z,71.52
2023-05-13T20:38:08.538Z,72.17
2023-05-13T20:40:37.006Z,72.44
2023-05-13T20:43:07.502Z,72.33
2023-05-13T20:45:39.792Z,72.56
2023-05-13T20:48:08.252Z,72.25
2023-05-13T20:50:37.512Z,72.97
2023-05-13T20:53:05.723Z,72.13
2023-05-13T20:55:33.687Z,72.04
2023-05-13T20:58:01.805Z,72.57
2023-05-13T21:00:29.878Z,72.75
2023-05-13T21:02:58.227Z,72.33
2023-05-13T21:05:26.483Z,72.69
2023-05-13T21:07:54.458Z,72.97
2023-05-13T21:10:23.011Z,73.29
2023-05-13T21:12:51.950Z,73.68
2023-05-13T21:15:20.182Z,73.31
2023-05-13T21:17:48.180Z,73.02
2023-05-13T21:20:16.726Z,73.25
2023-05-13T21:22:44.777Z,73.75
2023-05-13T21:25:13.478Z,73.96
2023-05-13T21:27:41.562Z,74.21
2023-05-13T21:30:10.518Z,74.07
2023-05-13T21:32:38.499Z,73.68
2023-05-13T21:35:07.052Z,73.39
2023-05-13T21:37:35.116Z,73.38
2023-05-13T21:40:03.392Z,72.97
2023-05-13T21:42:31.670Z,72.74
2023-05-13T21:44:59.567Z,73.27
2023-05-13T21:47:29.720Z,73.61
2023-05-13T21:49:58.506Z,73.50
2023-05-13T21:52:26.557Z,73.15
2023-05-13T21:54:54.436Z,73.12
2023-05-13T21:57:22.293Z,72.56
2023-05-13T21:59:50.215Z,72.39
2023-05-13T22:02:18.208Z,71.97
2023-05-13T22:04:46.569Z,73.14
2023-05-13T22:07:14.656Z,73.37
2023-05-13T22:09:42.558Z,73.09
2023-05-13T22:12:10.517Z,72.63
2023-05-13T22:14:38.466Z,73.08
2023-05-13T22:17:09.703Z,73.41
2023-05-13T22:19:38.147Z,73.27
2023-05-13T22:22:06.218Z,74.20
2023-05-13T22:24:34.268Z,74.90
2023-05-13T22:27:02.247Z,74.97
2023-05-13T22:29:30.531Z,74.53
2023-05-13T22:31:58.591Z,74.37
2023-05-13T22:34:26.828Z,74.04
2023-05-13T22:36:54.723Z,74.27
2023-05-13T22:39:22.704Z,73.93
2023-05-13T22:41:50.799Z,74.36
2023-05-13T22:44:18.800Z,74.31
2023-05-13T22:46:46.802Z,74.18
2023-05-13T22:49:14.792Z,74.13
2023-05-13T22:51:43.398Z,74.53
2023-05-13T22:54:11.284Z,74.50
2023-05-13T22:56:39.366Z,75.93
2023-05-13T22:59:07.349Z,75.58
2023-05-13T23:01:35.303Z,76.02
2023-05-13T23:04:06.023Z,76.10
2023-05-13T23:06:34.026Z,76.30
2023-05-13T23:09:01.888Z,75.70
2023-05-13T23:11:29.904Z,75.70
2023-05-13T23:13:58.162Z,75.46
2023-05-13T23:16:26.253Z,75.96
2023-05-13T23:18:55.706Z,76.52
2023-05-13T23:21:23.711Z,75.41
2023-05-13T23:23:52.262Z,76.36
2023-05-13T23:26:20.271Z,76.13
2023-05-13T23:28:48.213Z,75.16
2023-05-13T23:31:16.871Z,74.76
2023-05-13T23:33:44.745Z,75.12
2023-05-13T23:36:12.802Z,75.54
2023-05-13T23:38:41.019Z,75.80
2023-05-13T23:41:09.005Z,74.82
2023-05-13T23:43:36.916Z,74.93
2023-05-13T23:46:04.984Z,74.25
2023-05-13T23:48:32.822Z,74.36
2023-05-13T23:51:00.772Z,73.31
2023-05-13T23:53:28.758Z,73.82
2023-05-13T23:55:57.430Z,74.68
2023-05-13T23:58:25.605Z,74.52
